Onweer radar Meer informatie blitzortung!


Regen radar Meer informatie rain snow radar


Bezoek ook deze websites:

Template documentation
and downloads

And another site


Het weer levert geen direct gevaar op.    Er zijn geen waarschuwingen afgegeven.

METAR rapporten vliegvelden

   
EHVK - Volkel Rnlafb, Netherlands
Afstand tot: ZW 18 km
Gewijzigd: Jan 27 2020 12:55 pm
Grotendeels bewolkt  
Grotendeels bewolkt  
   Wind: ZZW 20.4 km/h
Wind: ZZW 20.4 km/h
Temperatuur: 9°C
Voelt als: 6°C
Dauwpunt: 8°C
Vochtigheid: 94%
Barometer: 1005 hPa
Bewolking: Grotendeels bewolkt
Zicht: meer dan 10 km
Bewolking: Licht bewolkt 213.4 m,
Grotendeels bewolkt 243.8 m,
Grotendeels bewolkt 304.8 m
EHVK 271155Z AUTO 21011KT 170V240 9999 FEW007 BKN008 BKN010 09/08 Q1005 GRN
EDLV - Niederrhein, Germany
Afstand tot: ZO 25 km
Gewijzigd: Jan 27 2020 12:50 pm
Wat regen mogelijk, Grotendeels bewolkt  
Wat regen mogelijk, Grotendeels bewolkt  
   Wind: ZZW 14.8 km/h
Wind: ZZW 14.8 km/h
Temperatuur: 9°C
Voelt als: 7°C
Dauwpunt: 8°C
Vochtigheid: 94%
Barometer: 1005 hPa
Bewolking: Grotendeels bewolkt
Zicht: 8 km
Bewolking: Grotendeels bewolkt 243.8 m
EDLV 271150Z 20008KT 170V230 8000 -RA BKN008 09/08 Q1005
EHDL - Deelen Rnlafb, Netherlands
Afstand tot: N 35 km
Gewijzigd: Jan 27 2020 12:55 pm
Bewolking  
Bewolking  
   Wind: Zuiden 20.4 km/h
Wind: Zuiden 20.4 km/h
Temperatuur: 9°C
Voelt als: 6°C
Dauwpunt: 8°C
Vochtigheid: 94%
Barometer: 1005 hPa
Bewolking: Bewolking
Zicht: meer dan 10 km
Bewolking: Licht bewolkt 213.4 m,
Grotendeels bewolkt 274.3 m,
Bewolking 304.8 m
EHDL 271155Z AUTO 19011KT 140V240 9999 FEW007 BKN009 OVC010 09/08 Q1005 GRN
EHEH - Eindhoven Rnlafb, Netherlands
Afstand tot: ZW 48 km
Gewijzigd: Jan 27 2020 12:55 pm
Grotendeels bewolkt  
Grotendeels bewolkt  
   Wind: ZZW 16.7 km/h
Wind: ZZW 16.7 km/h
Temperatuur: 9°C
Voelt als: 7°C
Dauwpunt: 8°C
Vochtigheid: 94%
Barometer: 1005 hPa
Bewolking: Grotendeels bewolkt
Zicht: meer dan 10 km
Bewolking: Licht bewolkt 243.8 m,
Gedeeltelijk bewolkt 335.3 m,
Grotendeels bewolkt 396.2 m
EHEH 271155Z AUTO 20009KT 180V240 9999 FEW008 SCT011 BKN013 09/08 Q1005 GRN 20010KT 9999 SCT010 BKN015 TEMPO BKN010 BKN014
EHGR - Gilze-Rijen Rnla, Netherlands
Afstand tot: WZW 70 km
Gewijzigd: Jan 27 2020 12:55 pm
Grotendeels bewolkt  
Grotendeels bewolkt  
   Wind: ZZW 13 km/h
Wind: ZZW 13 km/h
Temperatuur: 10°C
Voelt als: 8°C
Dauwpunt: 7°C
Vochtigheid: 82%
Barometer: 1005 hPa
Bewolking: Grotendeels bewolkt
Zicht: meer dan 10 km
Bewolking: Licht bewolkt 426.7 m,
Grotendeels bewolkt 548.6 m,
Grotendeels bewolkt 640.1 m
EHGR 271155Z AUTO 21007KT 170V250 9999 FEW014 BKN018 BKN021 10/07 Q1005 WHT 20009KT 9999 FEW012 SCT015 BKN030
EBBL - Kleine-Brogel(Ba, Belgium
Afstand tot: ZZW 71 km
Gewijzigd: Jan 27 2020 12:55 pm
Grotendeels bewolkt  
Grotendeels bewolkt  
   Wind: ZW 14.8 km/h
Wind: ZW 14.8 km/h
Temperatuur: 9°C
Voelt als: 7°C
Dauwpunt: 8°C
Vochtigheid: 94%
Barometer: 1006 hPa
Bewolking: Grotendeels bewolkt
Zicht: meer dan 10 km
Bewolking: Licht bewolkt 274.3 m,
Gedeeltelijk bewolkt 396.2 m,
Grotendeels bewolkt 609.6 m
EBBL 271155Z 22008KT 9999 FEW009 SCT013 BKN020 09/08 Q1006 GRN WHT TEMPO GRN

Script ontwikkeld door  Saratoga-weather.org Aangepast voor de template door  Weerstation Leuven

U vindt ons ook hier:

UK Metoffice

Weather Underground